Time;durP1;ratioP1;P1;durP2;ratioP2;P2;SDS_P1;SDS_P2;PMS_P1;PMS_P2;Temp;Humidity;BMP_temperature;BMP_pressure;BME280_temperature;BME280_humidity;BME280_pressure;Samples;Min_cycle;Max_cycle;Signal;HPM_P1;HPM_P2
2022/11/08 00:02:03;;;;;;;20.48;13.13;;;10.30;90.50;;;;;;5083137;28;20044;-66
2022/11/08 00:04:29;;;;;;;23.00;13.77;;;10.30;90.30;;;;;;5090523;28;20027;-72
2022/11/08 00:15:08;;;;;;;23.07;13.43;;;10.20;90.50;;;;;;5082655;28;20075;-67
2022/11/08 00:17:33;;;;;;;26.40;13.07;;;10.20;90.60;;;;;;5090249;28;20145;-75
2022/11/08 00:19:59;;;;;;;22.10;13.17;;;10.20;90.60;;;;;;5075430;28;20496;-76
2022/11/08 00:22:28;;;;;;;20.07;12.93;;;10.10;90.80;;;;;;5078507;28;20514;-67
2022/11/08 00:24:53;;;;;;;19.73;13.43;;;10.20;91.00;;;;;;5086442;28;20050;-67
2022/11/08 00:27:21;;;;;;;21.33;13.77;;;10.10;91.00;;;;;;5085942;28;20395;-75
2022/11/08 00:29:47;;;;;;;18.83;13.43;;;10.10;90.80;;;;;;5078735;28;20056;-72
2022/11/08 00:32:16;;;;;;;21.97;14.10;;;10.10;90.80;;;;;;5093631;28;20025;-76
2022/11/08 00:34:41;;;;;;;25.77;13.97;;;10.10;90.80;;;;;;5080167;28;20031;-69
2022/11/08 00:37:07;;;;;;;19.97;13.53;;;10.10;90.70;;;;;;5085073;28;20387;-69
2022/11/08 00:39:33;;;;;;;25.00;14.57;;;10.10;90.70;;;;;;5093165;28;20092;-69
2022/11/08 00:41:59;;;;;;;22.37;14.73;;;10.10;90.70;;;;;;5075935;28;20032;-67
2022/11/08 00:44:25;;;;;;;22.00;14.23;;;10.10;90.60;;;;;;5092658;28;20035;-67
2022/11/08 00:46:51;;;;;;;23.40;14.43;;;10.10;90.60;;;;;;5081938;28;20033;-67
2022/11/08 00:49:17;;;;;;;22.80;14.43;;;10.10;90.60;;;;;;5085492;28;20024;-71
2022/11/08 00:51:43;;;;;;;26.50;14.57;;;10.10;90.70;;;;;;5076530;28;20046;-68
2022/11/08 00:54:12;;;;;;;21.37;13.50;;;10.10;90.70;;;;;;5072965;28;20070;-72
2022/11/08 00:56:38;;;;;;;20.70;13.10;;;10.00;90.70;;;;;;5091989;28;20028;-71
2022/11/08 00:59:03;;;;;;;19.67;12.67;;;10.00;90.80;;;;;;5082949;28;20036;-67
2022/11/08 02:18:59;;;;;;;10.63;6.87;;;9.70;91.90;;;;;;2928835;28;20113;-76
2022/11/08 02:21:34;;;;;;;9.97;6.40;;;9.70;91.60;;;;;;5092550;28;20036;-77
2022/11/08 02:24:02;;;;;;;10.37;7.20;;;9.60;91.60;;;;;;5092685;28;20020;-75
2022/11/08 02:26:31;;;;;;;10.20;6.53;;;9.60;91.40;;;;;;5092914;28;20032;-75
2022/11/08 02:28:56;;;;;;;8.03;6.13;;;9.60;91.50;;;;;;5086142;28;20122;-67
2022/11/08 02:31:22;;;;;;;10.20;6.63;;;9.60;91.40;;;;;;5092924;28;20039;-67
2022/11/08 02:33:48;;;;;;;9.73;6.73;;;9.60;91.40;;;;;;5091351;28;20062;-74
2022/11/08 02:36:21;;;;;;;9.80;7.00;;;9.60;91.30;;;;;;5078330;28;20986;-77
2022/11/08 02:38:50;;;;;;;;;;;9.60;91.40;;;;;;5085548;28;20025;-67
2022/11/08 02:41:15;;;;;;;8.43;6.40;;;9.60;91.30;;;;;;5088259;28;19950;-67
2022/11/08 02:43:41;;;;;;;11.03;6.70;;;9.60;91.30;;;;;;5071853;28;20110;-68
2022/11/08 02:46:06;;;;;;;9.67;6.47;;;9.60;91.20;;;;;;5071711;28;20032;-67
2022/11/08 02:48:32;;;;;;;10.40;6.70;;;9.60;91.10;;;;;;5073027;28;20021;-68
2022/11/08 02:50:58;;;;;;;12.27;7.47;;;9.50;91.20;;;;;;5075696;28;20025;-67
2022/11/08 02:53:23;;;;;;;10.17;6.63;;;9.50;91.20;;;;;;5075697;28;20103;-71
2022/11/08 02:55:49;;;;;;;10.07;6.80;;;9.50;91.10;;;;;;5095186;28;20120;-67
2022/11/08 02:58:15;;;;;;;11.27;7.20;;;9.40;91.20;;;;;;5094696;28;20039;-70
2022/11/08 03:00:40;;;;;;;10.40;7.20;;;9.40;91.00;;;;;;5091344;28;20525;-72
2022/11/08 03:03:06;;;;;;;12.30;7.20;;;9.40;91.00;;;;;;5091274;28;20056;-67
2022/11/08 03:05:32;;;;;;;11.40;6.80;;;9.40;90.90;;;;;;5075615;28;20025;-67
2022/11/08 03:07:58;;;;;;;16.63;7.47;;;9.30;90.70;;;;;;5095187;28;20082;-73
2022/11/08 03:10:25;;;;;;;13.23;7.53;;;9.30;90.80;;;;;;5081782;28;20035;-73
2022/11/08 03:12:55;;;;;;;11.33;7.63;;;9.30;90.80;;;;;;5088955;28;20127;-67
2022/11/08 03:15:21;;;;;;;11.50;7.67;;;9.20;90.60;;;;;;5095643;28;20032;-75
2022/11/08 03:17:46;;;;;;;12.73;8.50;;;9.20;90.60;;;;;;5094620;28;20120;-73
2022/11/08 03:20:12;;;;;;;18.13;8.60;;;9.20;90.50;;;;;;5076821;28;20049;-68
2022/11/08 03:22:38;;;;;;;12.27;7.70;;;9.20;90.60;;;;;;5090328;28;20025;-69
2022/11/08 03:25:04;;;;;;;12.40;7.90;;;9.10;90.50;;;;;;5081204;28;20024;-76
2022/11/08 03:27:29;;;;;;;11.33;7.67;;;9.10;90.50;;;;;;5083002;28;20040;-66
2022/11/08 03:29:55;;;;;;;11.27;8.07;;;9.00;90.50;;;;;;5087611;28;20460;-68
2022/11/08 03:32:21;;;;;;;15.30;8.13;;;9.00;90.60;;;;;;5077768;28;20024;-76
2022/11/08 03:34:47;;;;;;;12.07;7.40;;;9.00;90.60;;;;;;5092481;28;20024;-69
2022/11/08 03:37:12;;;;;;;10.27;7.73;;;9.00;90.60;;;;;;5087989;28;20089;-67
2022/11/08 03:39:38;;;;;;;13.73;7.93;;;9.00;90.60;;;;;;5082761;28;20027;-67
2022/11/08 03:42:04;;;;;;;12.40;7.97;;;8.90;90.60;;;;;;5085086;28;20395;-67
2022/11/08 03:44:30;;;;;;;18.53;7.70;;;8.90;90.60;;;;;;5084295;28;20043;-66
2022/11/08 03:46:56;;;;;;;14.87;7.43;;;8.80;90.70;;;;;;5079668;28;20500;-68
2022/11/08 03:49:22;;;;;;;17.53;8.20;;;8.90;90.80;;;;;;5090166;28;20048;-68
2022/11/08 03:51:47;;;;;;;16.10;8.93;;;8.80;90.70;;;;;;5076493;28;20060;-76
2022/11/08 03:54:13;;;;;;;17.27;8.27;;;8.80;90.80;;;;;;5089257;28;20376;-69
2022/11/08 03:56:39;;;;;;;11.37;8.33;;;8.80;90.90;;;;;;5082263;28;20028;-76
2022/11/08 03:59:05;;;;;;;13.30;7.50;;;8.80;90.90;;;;;;5082576;28;20426;-71
2022/11/08 04:01:31;;;;;;;14.27;8.23;;;8.80;90.80;;;;;;5087714;28;20060;-76
2022/11/08 04:03:56;;;;;;;13.27;7.57;;;8.80;91.20;;;;;;5079267;28;20028;-69
2022/11/08 04:06:22;;;;;;;12.67;8.70;;;8.70;91.00;;;;;;5091008;28;21047;-72
2022/11/08 04:08:48;;;;;;;9.90;7.27;;;8.70;90.90;;;;;;5077086;28;20031;-67
2022/11/08 04:16:43;;;;;;;11.87;7.93;;;8.60;91.20;;;;;;5080223;28;20055;-67
2022/11/08 04:21:55;;;;;;;13.03;8.90;;;8.70;91.40;;;;;;5055934;28;20040;-67
2022/11/08 04:24:21;;;;;;;11.10;8.17;;;8.70;91.50;;;;;;5088762;28;20025;-67
2022/11/08 04:26:46;;;;;;;16.63;8.37;;;8.70;91.40;;;;;;5081397;28;20036;-74
2022/11/08 04:29:13;;;;;;;15.30;8.07;;;8.70;91.50;;;;;;5081258;28;20028;-67
2022/11/08 04:31:39;;;;;;;17.87;8.10;;;8.70;91.50;;;;;;5087034;28;20102;-66
2022/11/08 04:34:05;;;;;;;17.87;8.37;;;8.70;91.50;;;;;;5076495;28;20150;-70
2022/11/08 04:36:32;;;;;;;15.23;8.63;;;8.60;91.60;;;;;;5089343;28;20020;-67
2022/11/08 04:38:58;;;;;;;13.07;8.70;;;8.70;92.00;;;;;;5072835;28;20154;-67
2022/11/08 04:41:24;;;;;;;11.40;7.90;;;8.70;91.60;;;;;;5073048;28;20465;-68
2022/11/08 04:43:51;;;;;;;12.67;8.27;;;8.70;91.80;;;;;;5086691;28;20023;-67
2022/11/08 04:46:20;;;;;;;10.80;7.93;;;8.70;91.90;;;;;;5076195;28;20090;-68
2022/11/08 04:48:48;;;;;;;12.93;7.70;;;8.70;91.90;;;;;;5088972;28;20484;-67
2022/11/08 04:51:26;;;;;;;14.90;8.30;;;8.70;91.70;;;;;;5080436;28;20422;-67
2022/11/08 04:53:53;;;;;;;10.57;7.77;;;8.70;91.80;;;;;;5081379;28;20029;-67
2022/11/08 04:56:20;;;;;;;13.67;8.20;;;8.60;91.70;;;;;;5088029;28;20020;-68
2022/11/08 04:58:48;;;;;;;11.37;7.53;;;8.70;91.70;;;;;;5075663;28;20056;-67
2022/11/08 05:01:17;;;;;;;14.70;8.83;;;8.70;91.70;;;;;;5086664;28;20017;-67
2022/11/08 05:03:45;;;;;;;9.93;6.87;;;8.60;91.70;;;;;;5079006;28;20123;-69
2022/11/08 05:06:16;;;;;;;14.10;7.47;;;8.60;91.90;;;;;;5082140;28;20032;-75
2022/11/08 05:08:42;;;;;;;12.70;6.77;;;8.70;91.90;;;;;;5084193;28;20059;-67
2022/11/08 05:11:10;;;;;;;7.77;5.97;;;8.70;91.90;;;;;;5076516;28;20052;-67
2022/11/08 05:13:36;;;;;;;9.20;5.97;;;8.60;91.90;;;;;;5088973;28;20109;-67
2022/11/08 05:16:04;;;;;;;11.57;7.77;;;8.70;91.90;;;;;;5074407;28;20074;-68
2022/11/08 05:18:30;;;;;;;16.63;8.63;;;8.70;91.60;;;;;;5085528;28;20025;-67
2022/11/08 05:23:42;;;;;;;14.97;8.17;;;8.70;91.10;;;;;;5078162;28;20039;-67
2022/11/08 05:26:09;;;;;;;19.10;8.40;;;8.60;91.20;;;;;;5088515;28;20040;-67
2022/11/08 05:28:34;;;;;;;16.47;8.20;;;8.60;91.20;;;;;;5073517;28;20082;-71
2022/11/08 05:31:00;;;;;;;13.13;7.70;;;8.50;91.10;;;;;;5077437;28;20048;-67
2022/11/08 05:33:26;;;;;;;14.33;8.60;;;8.50;91.10;;;;;;5082903;28;20545;-69
2022/11/08 05:35:52;;;;;;;16.70;8.07;;;8.50;91.10;;;;;;5084651;28;20572;-66
2022/11/08 05:38:18;;;;;;;15.60;7.30;;;8.50;91.10;;;;;;5092467;28;20468;-66
2022/11/08 05:40:44;;;;;;;17.77;8.10;;;8.50;91.00;;;;;;5075215;28;20475;-75
2022/11/08 05:43:10;;;;;;;18.97;7.03;;;8.40;90.90;;;;;;5085232;28;20028;-69
2022/11/08 05:45:36;;;;;;;13.80;7.73;;;8.40;90.80;;;;;;5082359;28;20537;-66
2022/11/08 05:48:02;;;;;;;14.40;7.87;;;8.40;90.80;;;;;;5077877;28;20028;-67
2022/11/08 05:50:33;;;;;;;15.47;7.97;;;8.40;90.80;;;;;;5085982;28;20026;-73
2022/11/08 05:52:58;;;;;;;16.60;7.97;;;8.40;90.90;;;;;;5073925;28;20077;-68
2022/11/08 05:55:24;;;;;;;13.23;7.80;;;8.30;90.90;;;;;;5089832;28;20483;-67
2022/11/08 05:57:50;;;;;;;14.73;8.00;;;8.30;90.90;;;;;;5075594;28;20205;-68
2022/11/08 06:00:16;;;;;;;19.03;8.50;;;8.30;90.90;;;;;;5084329;28;20032;-67
2022/11/08 06:02:42;;;;;;;13.83;8.37;;;8.30;91.10;;;;;;5082071;28;20048;-71
2022/11/08 06:05:08;;;;;;;20.80;9.23;;;8.20;91.20;;;;;;5079482;28;20032;-67
2022/11/08 06:07:33;;;;;;;26.13;10.60;;;8.20;91.30;;;;;;5085187;28;20036;-72
2022/11/08 06:09:59;;;;;;;35.37;13.07;;;8.20;91.30;;;;;;5075023;28;20028;-67
2022/11/08 06:12:25;;;;;;;25.80;11.07;;;8.20;91.30;;;;;;5088858;28;20028;-67
2022/11/08 06:14:51;;;;;;;31.43;12.37;;;8.20;91.50;;;;;;5071986;28;20028;-67
2022/11/08 06:17:16;;;;;;;26.43;11.40;;;8.20;91.50;;;;;;5081902;28;20081;-66
2022/11/08 06:19:42;;;;;;;24.60;9.97;;;8.20;91.60;;;;;;5066025;28;20454;-65
2022/11/08 06:22:08;;;;;;;15.97;8.20;;;8.20;92.10;;;;;;5064289;28;20024;-67
2022/11/08 06:24:33;;;;;;;17.43;9.60;;;8.20;91.90;;;;;;5075519;28;20033;-67
2022/11/08 06:26:59;;;;;;;13.27;8.57;;;8.30;91.90;;;;;;5076500;28;20381;-75
2022/11/08 06:29:25;;;;;;;20.70;7.87;;;8.30;91.90;;;;;;5075831;28;20132;-71
2022/11/08 06:31:50;;;;;;;14.60;8.00;;;8.30;92.00;;;;;;5078108;28;20029;-70
2022/11/08 06:34:16;;;;;;;16.60;7.93;;;8.30;92.00;;;;;;5059788;28;20028;-67
2022/11/08 06:36:42;;;;;;;15.43;7.83;;;8.30;92.20;;;;;;5055829;28;20032;-67
2022/11/08 06:39:07;;;;;;;13.03;6.87;;;8.30;92.50;;;;;;5055607;28;20448;-74
2022/11/08 06:41:33;;;;;;;15.40;7.07;;;8.30;92.60;;;;;;5055810;28;20047;-68
2022/11/08 06:43:59;;;;;;;12.30;7.63;;;8.30;92.60;;;;;;5055256;28;20117;-75
2022/11/08 06:46:25;;;;;;;13.30;7.27;;;8.30;92.90;;;;;;5054580;28;20048;-67
2022/11/08 06:48:51;;;;;;;16.53;7.50;;;8.40;92.90;;;;;;5055543;28;20032;-66
2022/11/08 06:51:17;;;;;;;11.93;7.30;;;8.50;93.20;;;;;;5060321;28;20029;-66
2022/11/08 06:53:43;;;;;;;10.80;7.17;;;8.50;93.30;;;;;;5059083;28;20045;-66
2022/11/08 06:56:09;;;;;;;12.17;6.97;;;8.50;93.20;;;;;;5056288;28;20017;-66
2022/11/08 06:58:35;;;;;;;12.63;6.73;;;8.60;93.30;;;;;;5056340;28;20525;-66
2022/11/08 07:01:06;;;;;;;16.73;7.00;;;8.60;93.40;;;;;;5059055;28;20104;-65
2022/11/08 07:03:32;;;;;;;19.40;7.70;;;8.70;93.40;;;;;;5065073;28;20039;-67
2022/11/08 07:06:01;;;;;;;12.93;7.20;;;8.70;93.40;;;;;;5067538;28;20020;-66
2022/11/08 07:08:27;;;;;;;15.53;7.27;;;8.80;93.70;;;;;;5067933;28;20040;-66
2022/11/08 07:10:53;;;;;;;10.13;7.10;;;8.80;93.70;;;;;;5066796;28;20381;-66
2022/11/08 07:13:19;;;;;;;15.63;7.07;;;8.90;93.70;;;;;;5067029;28;20108;-66
2022/11/08 07:15:46;;;;;;;12.93;7.57;;;9.00;93.60;;;;;;5064450;28;20036;-66
2022/11/08 07:18:14;;;;;;;13.73;7.47;;;9.10;93.40;;;;;;5065779;28;20392;-67
2022/11/08 07:20:41;;;;;;;13.20;8.40;;;9.20;93.60;;;;;;5060855;28;20073;-67
2022/11/08 07:23:08;;;;;;;14.73;8.37;;;9.30;93.60;;;;;;5069166;28;20115;-67
2022/11/08 07:25:34;;;;;;;14.10;7.93;;;9.30;93.40;;;;;;5065443;28;20362;-79
2022/11/08 07:28:02;;;;;;;14.87;8.07;;;9.40;93.70;;;;;;5066830;28;20118;-66
2022/11/08 07:30:28;;;;;;;12.57;7.90;;;9.50;93.60;;;;;;5064462;28;20131;-66
2022/11/08 07:32:55;;;;;;;15.67;7.83;;;9.50;93.70;;;;;;5058103;28;20031;-66
2022/11/08 07:35:21;;;;;;;13.27;7.00;;;9.60;93.90;;;;;;5054984;28;20433;-66
2022/11/08 07:37:46;;;;;;;9.80;7.30;;;9.70;93.80;;;;;;5055855;28;20079;-79
2022/11/08 07:40:13;;;;;;;17.63;7.37;;;9.80;93.80;;;;;;5056130;28;20465;-80
2022/11/08 07:42:39;;;;;;;10.47;7.17;;;9.80;93.80;;;;;;5055102;28;20021;-66
2022/11/08 07:45:06;;;;;;;13.73;7.27;;;9.90;93.90;;;;;;5055292;28;20400;-66
2022/11/08 07:47:32;;;;;;;15.27;6.17;;;9.90;93.80;;;;;;5055412;28;20094;-66
2022/11/08 07:49:58;;;;;;;8.93;5.37;;;10.00;93.70;;;;;;5055470;28;20025;-66
2022/11/08 07:52:25;;;;;;;8.23;5.10;;;10.10;93.60;;;;;;5055192;28;20393;-65
2022/11/08 07:54:51;;;;;;;17.80;5.83;;;10.10;93.40;;;;;;5055233;28;20021;-66
2022/11/08 07:57:16;;;;;;;15.70;6.32;;;10.20;93.40;;;;;;5055083;28;20028;-66
2022/11/08 07:59:42;;;;;;;9.57;5.25;;;10.30;93.30;;;;;;5058170;28;20564;-65
2022/11/08 08:02:11;;;;;;;13.70;5.03;;;10.30;93.00;;;;;;5068854;28;20044;-66
2022/11/08 08:04:37;;;;;;;9.30;4.93;;;10.40;92.80;;;;;;5074963;28;20020;-65
2022/11/08 08:07:04;;;;;;;9.60;4.80;;;10.50;92.70;;;;;;5069915;28;20033;-66
2022/11/08 08:09:29;;;;;;;10.27;5.65;;;10.50;92.50;;;;;;5057146;28;20035;-65
2022/11/08 08:11:55;;;;;;;11.00;5.47;;;10.60;92.30;;;;;;5054548;28;20029;-66
2022/11/08 08:14:21;;;;;;;7.70;5.43;;;10.60;92.30;;;;;;5053856;28;20025;-66
2022/11/08 08:16:46;;;;;;;11.00;5.07;;;10.70;92.10;;;;;;5054128;28;20388;-66
2022/11/08 08:19:12;;;;;;;9.63;5.53;;;10.70;91.90;;;;;;5054015;28;20025;-65
2022/11/08 08:21:38;;;;;;;15.23;8.50;;;10.80;92.00;;;;;;5053764;28;20122;-66
2022/11/08 08:24:04;;;;;;;12.20;8.13;;;10.90;91.60;;;;;;5054021;28;20124;-66
2022/11/08 08:26:30;;;;;;;13.48;7.50;;;11.00;91.90;;;;;;5066698;28;20040;-66
2022/11/08 08:28:55;;;;;;;14.27;6.97;;;11.00;91.80;;;;;;5066838;28;20513;-65
2022/11/08 08:31:21;;;;;;;12.80;7.43;;;11.10;91.80;;;;;;5062276;28;20416;-69
2022/11/08 08:33:47;;;;;;;17.90;7.25;;;11.20;91.70;;;;;;5064900;28;20024;-65
2022/11/08 08:36:12;;;;;;;16.52;7.57;;;11.20;91.60;;;;;;5061931;28;20392;-65
2022/11/08 08:38:38;;;;;;;12.60;7.28;;;11.30;91.80;;;;;;5064086;28;20556;-65
2022/11/08 08:41:04;;;;;;;17.73;7.70;;;11.30;91.80;;;;;;5065281;28;20429;-65
2022/11/08 08:43:33;;;;;;;16.40;8.65;;;11.40;91.90;;;;;;5062497;28;20100;-66
2022/11/08 08:46:04;;;;;;;14.50;7.55;;;11.40;91.90;;;;;;5063289;28;20016;-72
2022/11/08 08:48:30;;;;;;;18.95;7.80;;;11.50;91.80;;;;;;5063490;28;20067;-67
2022/11/08 08:50:56;;;;;;;16.85;7.95;;;11.60;91.90;;;;;;5074095;28;20048;-65
2022/11/08 08:53:22;;;;;;;21.00;7.20;;;11.60;91.90;;;;;;5074061;28;20055;-66
2022/11/08 08:55:51;;;;;;;11.93;7.13;;;11.70;92.10;;;;;;5074171;28;20029;-66
2022/11/08 08:58:17;;;;;;;12.70;6.80;;;11.70;91.80;;;;;;5073907;28;20025;-70
2022/11/08 09:00:43;;;;;;;19.58;6.93;;;11.80;91.60;;;;;;5074080;28;20484;-70
2022/11/08 09:03:10;;;;;;;10.27;5.95;;;11.90;91.70;;;;;;5074008;28;20107;-72
2022/11/08 09:05:37;;;;;;;12.05;6.68;;;12.00;91.70;;;;;;5073942;28;20031;-66
2022/11/08 09:08:03;;;;;;;12.30;6.10;;;12.00;91.40;;;;;;5073439;28;20545;-66
2022/11/08 09:10:29;;;;;;;14.25;6.30;;;12.10;91.30;;;;;;5071477;28;20044;-65
2022/11/08 09:12:55;;;;;;;11.43;6.13;;;12.10;91.10;;;;;;5073820;28;20060;-71
2022/11/08 09:15:21;;;;;;;15.55;5.80;;;12.20;91.00;;;;;;5067176;28;20025;-65
2022/11/08 09:17:47;;;;;;;15.27;5.85;;;12.20;90.80;;;;;;5063011;28;20025;-65
2022/11/08 09:20:15;;;;;;;11.38;5.72;;;12.30;90.80;;;;;;5073486;28;20079;-73
2022/11/08 09:22:41;;;;;;;10.18;5.82;;;12.30;90.70;;;;;;5073091;28;20024;-66
2022/11/08 09:25:07;;;;;;;14.27;6.38;;;12.40;90.70;;;;;;5073149;28;20494;-65
2022/11/08 09:27:33;;;;;;;14.02;5.95;;;12.40;90.90;;;;;;5073600;28;20042;-65
2022/11/08 09:29:59;;;;;;;11.20;5.47;;;12.50;90.60;;;;;;5063688;28;20108;-71
2022/11/08 09:32:27;;;;;;;11.32;5.50;;;12.50;90.50;;;;;;5064420;28;20020;-65
2022/11/08 09:34:56;;;;;;;10.07;5.18;;;12.60;90.50;;;;;;5062676;28;20052;-64
2022/11/08 09:37:23;;;;;;;12.35;5.85;;;12.70;90.50;;;;;;5061692;28;20041;-65
2022/11/08 09:39:49;;;;;;;8.35;5.28;;;12.80;90.30;;;;;;5061324;28;20020;-64
2022/11/08 09:42:33;;;;;;;8.73;5.30;;;12.80;90.20;;;;;;5065882;28;20028;-68
2022/11/08 09:45:10;;;;;;;7.55;5.45;;;12.90;90.30;;;;;;5071800;28;20028;-65
2022/11/08 09:47:41;;;;;;;7.15;5.45;;;13.00;90.00;;;;;;5065074;28;20032;-64
2022/11/08 09:50:17;;;;;;;10.93;5.50;;;13.00;90.00;;;;;;5065130;28;20038;-64
2022/11/08 09:52:51;;;;;;;11.00;5.85;;;13.10;89.80;;;;;;5072808;28;20099;-65
2022/11/08 09:55:41;;;;;;;11.52;5.93;;;13.20;89.70;;;;;;5073215;28;20100;-64
2022/11/08 09:58:21;;;;;;;9.73;5.72;;;13.20;89.50;;;;;;5072747;28;20100;-64
2022/11/08 10:00:49;;;;;;;13.05;7.00;;;13.30;89.70;;;;;;5073102;28;20032;-64
2022/11/08 10:03:16;;;;;;;11.00;6.07;;;13.40;89.70;;;;;;5072824;28;20029;-64
2022/11/08 10:05:55;;;;;;;12.10;6.32;;;13.40;89.60;;;;;;5072719;28;20020;-65
2022/11/08 10:08:31;;;;;;;10.15;6.97;;;13.50;89.40;;;;;;5072981;28;20560;-65
2022/11/08 10:11:17;;;;;;;13.68;7.13;;;13.50;89.20;;;;;;5066633;28;20108;-65
2022/11/08 10:14:10;;;;;;;14.52;7.30;;;13.60;88.50;;;;;;5069882;28;20384;-65
2022/11/08 10:16:54;;;;;;;10.73;7.18;;;13.70;88.80;;;;;;5082989;28;20510;-64
2022/11/08 10:19:33;;;;;;;15.45;8.10;;;13.80;88.50;;;;;;5092961;28;20081;-65
2022/11/08 10:22:18;;;;;;;19.52;9.07;;;13.90;87.90;;;;;;5093309;28;20476;-65
2022/11/08 10:25:00;;;;;;;18.75;9.45;;;13.90;86.20;;;;;;5093403;28;20032;-69
2022/11/08 10:27:31;;;;;;;24.73;9.70;;;13.90;83.90;;;;;;5092858;28;20036;-64
2022/11/08 10:30:02;;;;;;;20.70;9.27;;;14.10;83.60;;;;;;5093040;28;20024;-65
2022/11/08 10:32:31;;;;;;;18.98;9.82;;;14.10;84.50;;;;;;5093173;28;20062;-65
2022/11/08 10:35:12;;;;;;;24.15;10.02;;;14.20;83.50;;;;;;5093041;28;20484;-65
2022/11/08 10:37:42;;;;;;;20.13;9.32;;;14.20;82.60;;;;;;5092839;28;20081;-65
2022/11/08 10:40:19;;;;;;;21.05;8.60;;;14.30;82.10;;;;;;5092593;28;20028;-74
2022/11/08 10:42:51;;;;;;;14.90;8.88;;;14.40;82.10;;;;;;5092893;28;20065;-65
2022/11/08 10:45:17;;;;;;;17.90;8.60;;;14.50;82.70;;;;;;5093122;28;20028;-65
2022/11/08 10:47:45;;;;;;;15.27;9.07;;;14.50;83.20;;;;;;5092802;28;20391;-65
2022/11/08 10:50:14;;;;;;;18.65;9.35;;;14.60;83.50;;;;;;5092751;28;20027;-65
2022/11/08 10:53:02;;;;;;;22.08;10.48;;;14.70;82.90;;;;;;5092565;28;20388;-66
2022/11/08 10:55:32;;;;;;;17.85;9.55;;;14.80;81.60;;;;;;5052517;28;20021;-69
2022/11/08 10:57:59;;;;;;;15.68;9.73;;;14.80;81.10;;;;;;5052483;28;20435;-65
2022/11/08 11:00:26;;;;;;;44.95;12.18;;;14.90;81.60;;;;;;5053970;28;20082;-66
2022/11/08 11:03:27;;;;;;;23.00;8.88;;;15.00;82.00;;;;;;5059731;28;20077;-72
2022/11/08 11:05:58;;;;;;;14.80;8.90;;;15.00;82.00;;;;;;5062376;28;20025;-73
2022/11/08 11:08:24;;;;;;;16.08;8.82;;;15.10;81.30;;;;;;5068966;28;20041;-72
2022/11/08 11:10:50;;;;;;;21.00;9.07;;;15.10;81.10;;;;;;5075366;28;20020;-73
2022/11/08 11:13:20;;;;;;;16.70;10.23;;;15.20;80.70;;;;;;5075974;28;20028;-65
2022/11/08 11:15:55;;;;;;;18.77;10.65;;;15.20;79.30;;;;;;5075721;28;20016;-65
2022/11/08 11:18:49;;;;;;;17.52;9.95;;;15.30;78.50;;;;;;5084737;28;20085;-69
2022/11/08 11:21:22;;;;;;;14.77;9.18;;;15.30;79.10;;;;;;5095919;28;20044;-67
2022/11/08 11:23:54;;;;;;;19.08;9.00;;;15.40;80.10;;;;;;5096094;28;20032;-64
2022/11/08 11:26:27;;;;;;;18.75;9.60;;;15.40;80.10;;;;;;5081371;28;20056;-64
2022/11/08 11:29:02;;;;;;;17.10;9.13;;;15.40;79.50;;;;;;5069304;28;20484;-64
2022/11/08 11:31:28;;;;;;;14.43;9.20;;;15.50;80.20;;;;;;5095837;28;20024;-64
2022/11/08 11:33:53;;;;;;;18.90;9.80;;;15.60;79.60;;;;;;5095947;28;20039;-64
2022/11/08 11:36:23;;;;;;;21.73;10.40;;;15.60;79.30;;;;;;5095768;28;20032;-65
2022/11/08 11:39:02;;;;;;;16.55;9.80;;;15.60;78.20;;;;;;5095454;28;20016;-65
2022/11/08 11:41:51;;;;;;;16.40;9.40;;;15.70;77.50;;;;;;5095933;28;20024;-67
2022/11/08 11:44:40;;;;;;;19.90;11.77;;;15.70;77.20;;;;;;5095630;28;20063;-64
2022/11/08 11:47:17;;;;;;;21.48;10.27;;;15.70;77.00;;;;;;5095541;28;20028;-64
2022/11/08 11:49:45;;;;;;;18.52;10.80;;;15.70;77.10;;;;;;5081811;28;20476;-65
2022/11/08 11:52:17;;;;;;;21.95;10.70;;;15.70;76.90;;;;;;5075480;28;20016;-64
2022/11/08 11:54:45;;;;;;;20.63;11.15;;;15.70;76.20;;;;;;5075573;28;20054;-64
2022/11/08 11:57:40;;;;;;;17.35;10.63;;;15.80;76.40;;;;;;5075202;28;20020;-65
2022/11/08 12:00:11;;;;;;;18.92;10.50;;;15.80;77.40;;;;;;5075155;28;20024;-65
2022/11/08 12:03:21;;;;;;;19.23;10.57;;;15.80;76.60;;;;;;5075211;28;20103;-64
2022/11/08 12:06:03;;;;;;;18.10;10.65;;;15.90;76.50;;;;;;5075297;28;20031;-64
2022/11/08 12:09:05;;;;;;;19.63;11.55;;;15.90;76.00;;;;;;5075020;28;20032;-64
2022/11/08 12:12:05;;;;;;;17.43;10.57;;;15.90;74.60;;;;;;5074730;28;20031;-64
2022/11/08 12:14:39;;;;;;;15.43;9.57;;;15.90;75.40;;;;;;5074845;28;20257;-64
2022/11/08 12:17:23;;;;;;;17.67;10.07;;;15.80;75.70;;;;;;5075033;28;20484;-64
2022/11/08 12:20:20;;;;;;;16.17;10.20;;;15.80;76.50;;;;;;5075470;28;20044;-64
2022/11/08 12:23:14;;;;;;;20.98;10.25;;;15.80;77.10;;;;;;5094777;28;20025;-64
2022/11/08 12:25:48;;;;;;;16.85;10.02;;;15.70;76.90;;;;;;5094869;28;20052;-71
2022/11/08 12:28:41;;;;;;;16.90;9.82;;;15.70;77.20;;;;;;5094589;28;20044;-64
2022/11/08 12:31:16;;;;;;;18.63;11.65;;;15.60;77.50;;;;;;5094778;28;20114;-65
2022/11/08 12:34:09;;;;;;;19.27;11.63;;;15.50;77.00;;;;;;5094664;28;20028;-74
2022/11/08 12:36:38;;;;;;;19.60;11.13;;;15.50;77.40;;;;;;5094661;28;20089;-65
2022/11/08 12:39:08;;;;;;;22.02;11.40;;;15.40;77.40;;;;;;5094755;28;20039;-65
2022/11/08 12:41:50;;;;;;;18.45;11.55;;;15.30;77.80;;;;;;5094563;28;20495;-65
2022/11/08 12:44:19;;;;;;;19.33;12.70;;;15.40;78.80;;;;;;5094225;28;20548;-65
2022/11/08 12:46:53;;;;;;;20.95;11.98;;;15.30;78.90;;;;;;5093610;28;20086;-65
2022/11/08 12:49:25;;;;;;;22.52;13.85;;;15.30;79.60;;;;;;5062940;28;20039;-73
2022/11/08 12:52:17;;;;;;;20.30;12.52;;;15.30;80.20;;;;;;5052786;28;20029;-74
2022/11/08 12:54:52;;;;;;;20.33;12.15;;;15.20;78.60;;;;;;5044941;28;20047;-65
2022/11/08 12:57:21;;;;;;;22.63;12.80;;;15.20;78.00;;;;;;5058472;28;20397;-65
2022/11/08 12:59:46;;;;;;;20.20;12.95;;;15.20;78.20;;;;;;5067106;28;20083;-64
2022/11/08 13:02:25;;;;;;;28.85;13.65;;;15.30;78.20;;;;;;5067337;28;20029;-64
2022/11/08 13:04:55;;;;;;;21.30;13.40;;;15.30;76.60;;;;;;5065770;28;20059;-63
2022/11/08 13:07:26;;;;;;;25.77;13.52;;;15.40;76.00;;;;;;5064703;28;20223;-64
2022/11/08 13:10:00;;;;;;;22.27;13.27;;;15.40;74.90;;;;;;5062870;28;20472;-65
2022/11/08 13:12:36;;;;;;;24.90;13.90;;;15.50;76.00;;;;;;5064796;28;20020;-65
2022/11/08 13:15:03;;;;;;;23.40;14.43;;;15.60;76.10;;;;;;5060988;28;20029;-64
2022/11/08 13:17:30;;;;;;;21.90;13.43;;;15.70;75.30;;;;;;5053489;28;20108;-64
2022/11/08 13:19:57;;;;;;;21.70;13.82;;;15.70;75.40;;;;;;5053455;28;20049;-65
2022/11/08 13:22:30;;;;;;;23.73;13.30;;;15.80;76.00;;;;;;5053422;28;20024;-64
2022/11/08 13:25:07;;;;;;;21.30;13.55;;;15.90;76.20;;;;;;5053578;28;20081;-64
2022/11/08 13:27:37;;;;;;;21.73;13.98;;;15.80;75.60;;;;;;5053494;28;20041;-66
2022/11/08 13:30:15;;;;;;;23.40;14.27;;;15.90;76.00;;;;;;5053558;28;20024;-66
2022/11/08 13:33:06;;;;;;;26.70;14.52;;;15.90;76.10;;;;;;5052757;28;20025;-64
2022/11/08 13:35:36;;;;;;;22.60;13.40;;;15.80;76.30;;;;;;5051975;28;20104;-65
2022/11/08 13:38:14;;;;;;;20.63;14.05;;;15.80;76.50;;;;;;5053456;28;20393;-65
2022/11/08 13:41:03;;;;;;;22.20;13.52;;;15.80;76.60;;;;;;5052839;28;20067;-65
2022/11/08 13:43:31;;;;;;;19.00;12.95;;;15.80;76.60;;;;;;5053397;28;20385;-71
2022/11/08 13:46:26;;;;;;;18.73;12.25;;;15.80;76.60;;;;;;5053232;28;20043;-77
2022/11/08 13:49:02;;;;;;;18.85;11.73;;;15.70;76.60;;;;;;5045263;28;20033;-65
2022/11/08 13:51:40;;;;;;;18.02;12.38;;;15.80;76.40;;;;;;5053181;28;20461;-65
2022/11/08 13:54:21;;;;;;;18.45;11.85;;;15.70;76.20;;;;;;5053120;28;20032;-65
2022/11/08 13:56:54;;;;;;;18.85;12.20;;;15.70;76.70;;;;;;5053115;28;20025;-64
2022/11/08 13:59:29;;;;;;;20.33;12.05;;;15.70;77.10;;;;;;5060571;28;20070;-65
2022/11/08 14:01:58;;;;;;;20.17;12.02;;;15.70;77.30;;;;;;5061495;28;20029;-68
2022/11/08 14:04:29;;;;;;;19.80;11.35;;;15.70;76.00;;;;;;5064294;28;20044;-64
2022/11/08 14:07:03;;;;;;;19.13;12.05;;;15.70;73.80;;;;;;5066438;28;20037;-64
2022/11/08 14:09:55;;;;;;;18.05;11.82;;;15.60;74.00;;;;;;5090990;28;20021;-72
2022/11/08 14:12:27;;;;;;;23.27;11.57;;;15.60;74.40;;;;;;5090604;28;20040;-65
2022/11/08 14:15:09;;;;;;;23.73;12.50;;;15.70;74.90;;;;;;5092881;28;20020;-68
2022/11/08 14:17:46;;;;;;;47.75;12.15;;;15.70;74.60;;;;;;5092792;28;20047;-64
2022/11/08 14:20:33;;;;;;;26.92;11.40;;;15.60;74.50;;;;;;5092750;28;20171;-65
2022/11/08 14:23:18;;;;;;;22.08;11.80;;;15.60;74.80;;;;;;5092711;28;20412;-67
2022/11/08 14:26:11;;;;;;;20.02;11.80;;;15.60;74.40;;;;;;5091658;28;20024;-65
2022/11/08 14:28:43;;;;;;;23.63;12.32;;;15.60;74.80;;;;;;5088497;28;20518;-63
2022/11/08 14:31:26;;;;;;;22.70;12.73;;;15.60;73.40;;;;;;5092293;28;20076;-65